createdAt,value
2022-07-31T00:01:29.552Z,2.30
2022-07-31T00:03:57.880Z,1.20
2022-07-31T00:06:26.226Z,2.85
2022-07-31T00:08:54.451Z,6.32
2022-07-31T00:11:22.794Z,3.35
2022-07-31T00:13:57.293Z,2.58
2022-07-31T00:16:28.867Z,1.85
2022-07-31T00:18:57.258Z,3.55
2022-07-31T00:21:25.690Z,3.85
2022-07-31T00:23:53.862Z,4.25
2022-07-31T00:26:22.131Z,4.22
2022-07-31T00:28:51.755Z,2.40
2022-07-31T00:31:19.933Z,2.47
2022-07-31T00:33:48.222Z,4.80
2022-07-31T00:36:17.398Z,4.30
2022-07-31T00:38:45.645Z,4.30
2022-07-31T00:41:14.305Z,3.13
2022-07-31T00:43:42.546Z,3.38
2022-07-31T00:46:14.428Z,2.85
2022-07-31T00:48:43.036Z,4.07
2022-07-31T00:51:12.276Z,3.05
2022-07-31T00:53:40.423Z,5.25
2022-07-31T00:56:09.646Z,3.97
2022-07-31T00:58:37.809Z,4.68
2022-07-31T01:01:06.225Z,2.70
2022-07-31T01:03:35.869Z,6.97
2022-07-31T01:06:06.600Z,2.60
2022-07-31T01:08:34.804Z,2.90
2022-07-31T01:11:11.266Z,3.35
2022-07-31T01:13:48.078Z,2.38
2022-07-31T01:16:18.231Z,3.72
2022-07-31T01:18:49.243Z,3.90
2022-07-31T01:21:21.903Z,3.15
2022-07-31T01:24:23.365Z,3.28
2022-07-31T01:26:56.653Z,4.15
2022-07-31T01:29:29.956Z,3.25
2022-07-31T01:32:03.621Z,2.92
2022-07-31T01:34:39.315Z,3.10
2022-07-31T01:37:13.712Z,2.92
2022-07-31T01:39:47.744Z,5.45
2022-07-31T01:42:19.477Z,3.28
2022-07-31T01:44:54.174Z,8.30
2022-07-31T01:47:24.217Z,3.60
2022-07-31T01:49:54.902Z,4.22
2022-07-31T01:52:25.429Z,3.35
2022-07-31T01:54:55.430Z,4.05
2022-07-31T01:57:28.271Z,3.88
2022-07-31T02:00:01.995Z,5.82
2022-07-31T02:02:31.991Z,5.18
2022-07-31T02:05:00.419Z,6.50
2022-07-31T02:07:29.763Z,4.05
2022-07-31T02:09:59.311Z,5.07
2022-07-31T02:12:33.396Z,5.78
2022-07-31T02:15:05.616Z,6.63
2022-07-31T02:17:35.231Z,8.15
2022-07-31T02:20:05.594Z,4.50
2022-07-31T02:22:34.920Z,4.53
2022-07-31T02:25:03.624Z,3.97
2022-07-31T02:27:56.270Z,5.65
2022-07-31T02:30:23.188Z,4.47
2022-07-31T02:32:53.572Z,5.15
2022-07-31T02:35:22.768Z,4.35
2022-07-31T02:37:55.330Z,5.15
2022-07-31T02:40:26.331Z,5.30
2022-07-31T02:42:55.197Z,5.97
2022-07-31T02:45:25.434Z,8.02
2022-07-31T02:47:54.278Z,4.45
2022-07-31T02:50:23.636Z,4.20
2022-07-31T02:52:53.012Z,6.30
2022-07-31T02:55:21.259Z,4.90
2022-07-31T02:57:51.333Z,4.18
2022-07-31T03:00:26.988Z,7.05
2022-07-31T03:02:56.327Z,8.02
2022-07-31T03:05:27.142Z,6.53
2022-07-31T03:07:55.380Z,7.13
2022-07-31T03:10:23.689Z,5.88
2022-07-31T03:12:54.249Z,4.72
2022-07-31T03:15:26.624Z,8.05
2022-07-31T03:17:55.748Z,8.07
2022-07-31T03:20:24.557Z,5.10
2022-07-31T03:22:53.017Z,6.20
2022-07-31T03:25:22.297Z,6.25
2022-07-31T03:27:56.000Z,10.20
2022-07-31T03:30:26.473Z,9.20
2022-07-31T03:32:54.910Z,10.65
2022-07-31T03:35:23.991Z,7.30
2022-07-31T03:37:52.412Z,8.25
2022-07-31T03:40:20.681Z,8.20
2022-07-31T03:42:51.758Z,6.47
2022-07-31T03:45:21.786Z,9.02
2022-07-31T03:47:51.640Z,6.43
2022-07-31T03:50:20.362Z,11.73
2022-07-31T03:52:48.682Z,7.03
2022-07-31T03:55:18.367Z,9.10
2022-07-31T03:57:47.645Z,5.50
2022-07-31T04:00:17.738Z,8.30
2022-07-31T04:03:10.105Z,11.23
2022-07-31T04:05:39.648Z,7.90
2022-07-31T04:08:07.877Z,6.35
2022-07-31T04:10:36.862Z,7.93
2022-07-31T04:13:06.625Z,7.18
2022-07-31T04:15:35.033Z,7.43
2022-07-31T04:18:03.218Z,5.35
2022-07-31T04:20:32.849Z,6.78
2022-07-31T04:23:01.038Z,6.68
2022-07-31T04:25:31.251Z,5.47
2022-07-31T04:28:01.402Z,5.95
2022-07-31T04:30:29.692Z,7.32
2022-07-31T04:32:59.377Z,5.72
2022-07-31T04:35:27.888Z,7.43
2022-07-31T04:37:57.551Z,7.95
2022-07-31T04:40:27.864Z,6.95
2022-07-31T04:42:56.492Z,6.93
2022-07-31T04:45:24.746Z,7.63
2022-07-31T04:47:52.936Z,8.80
2022-07-31T04:50:21.300Z,11.50
2022-07-31T04:52:50.098Z,7.65
2022-07-31T04:55:19.668Z,6.55
2022-07-31T04:57:47.943Z,7.00
2022-07-31T05:00:19.274Z,10.07
2022-07-31T05:02:47.666Z,6.20
2022-07-31T05:05:17.552Z,9.73
2022-07-31T05:07:45.858Z,9.98
2022-07-31T05:10:34.252Z,10.30
2022-07-31T05:13:03.843Z,7.93
2022-07-31T05:15:32.676Z,9.80
2022-07-31T05:18:01.029Z,9.10
2022-07-31T05:20:29.218Z,8.02
2022-07-31T05:22:57.387Z,6.05
2022-07-31T05:25:25.601Z,9.18
2022-07-31T05:27:53.779Z,12.25
2022-07-31T05:30:29.822Z,7.78
2022-07-31T05:32:59.389Z,8.80
2022-07-31T05:35:27.659Z,8.25
2022-07-31T05:37:55.841Z,8.43
2022-07-31T05:40:24.108Z,8.48
2022-07-31T05:42:52.241Z,7.53
2022-07-31T05:45:20.614Z,8.45
2022-07-31T05:47:50.200Z,8.80
2022-07-31T05:50:18.890Z,15.43
2022-07-31T05:52:47.282Z,11.15
2022-07-31T05:55:15.440Z,7.97
2022-07-31T05:57:44.040Z,9.23
2022-07-31T06:00:13.590Z,8.52
2022-07-31T06:02:42.768Z,11.10
2022-07-31T06:05:14.418Z,9.52
2022-07-31T06:07:51.934Z,14.40
2022-07-31T06:10:21.910Z,9.90
2022-07-31T06:12:50.252Z,10.48
2022-07-31T06:15:18.781Z,8.32
2022-07-31T06:17:47.293Z,10.35
2022-07-31T06:20:16.973Z,10.18
2022-07-31T06:22:45.451Z,10.07
2022-07-31T06:25:14.183Z,11.25
2022-07-31T06:27:43.531Z,6.88
2022-07-31T06:30:15.142Z,11.82
2022-07-31T06:32:43.686Z,8.55
2022-07-31T06:35:12.197Z,12.32
2022-07-31T06:37:41.827Z,11.38
2022-07-31T06:40:11.200Z,14.95
2022-07-31T06:42:42.157Z,8.25
2022-07-31T06:45:11.634Z,7.00
2022-07-31T06:47:39.898Z,8.60
2022-07-31T06:50:10.492Z,9.55
2022-07-31T06:52:38.706Z,12.43
2022-07-31T06:55:09.752Z,8.85
2022-07-31T06:57:39.357Z,7.95
2022-07-31T07:00:20.019Z,11.63
2022-07-31T07:02:49.121Z,8.32
2022-07-31T07:05:17.342Z,7.82
2022-07-31T07:07:45.537Z,7.40
2022-07-31T07:10:15.157Z,10.35
2022-07-31T07:12:43.405Z,7.03
2022-07-31T07:15:11.894Z,6.93
2022-07-31T07:17:40.136Z,9.02
2022-07-31T07:20:09.389Z,6.60
2022-07-31T07:22:38.788Z,7.80
2022-07-31T07:25:07.617Z,5.88
2022-07-31T07:27:37.174Z,7.90
2022-07-31T07:30:08.633Z,6.72
2022-07-31T07:32:36.815Z,8.43
2022-07-31T07:35:05.355Z,5.93
2022-07-31T07:37:39.067Z,6.00
2022-07-31T07:40:09.745Z,7.93
2022-07-31T07:42:39.320Z,5.95
2022-07-31T07:45:08.564Z,10.02
2022-07-31T07:48:05.099Z,5.43
2022-07-31T07:50:26.783Z,4.93
2022-07-31T07:52:57.692Z,6.07
2022-07-31T07:55:37.703Z,6.35
2022-07-31T07:58:11.733Z,5.30
2022-07-31T08:00:41.620Z,5.43
2022-07-31T08:03:49.000Z,7.25
2022-07-31T08:06:00.135Z,4.78
2022-07-31T08:08:28.386Z,4.28
2022-07-31T08:10:57.112Z,4.88
2022-07-31T08:13:26.723Z,9.13
2022-07-31T08:15:55.260Z,4.78
2022-07-31T08:18:23.456Z,3.90
2022-07-31T08:20:56.713Z,5.78
2022-07-31T08:23:24.888Z,4.57
2022-07-31T08:25:54.335Z,4.25
2022-07-31T08:28:27.168Z,8.93
2022-07-31T08:30:55.460Z,5.28
2022-07-31T08:33:26.569Z,6.55
2022-07-31T08:35:54.863Z,5.97
2022-07-31T08:38:23.545Z,4.85
2022-07-31T08:40:51.782Z,7.00
2022-07-31T08:44:01.994Z,5.13
2022-07-31T08:46:10.613Z,5.63
2022-07-31T08:48:42.322Z,7.38
2022-07-31T08:51:14.881Z,9.35
2022-07-31T08:53:45.014Z,5.38
2022-07-31T08:56:13.965Z,5.43
2022-07-31T08:58:42.538Z,4.18
2022-07-31T09:01:14.747Z,4.65
2022-07-31T09:03:44.183Z,6.20
2022-07-31T09:06:12.397Z,3.47
2022-07-31T09:08:41.107Z,5.47
2022-07-31T09:11:12.419Z,4.68
2022-07-31T09:13:41.040Z,6.30
2022-07-31T09:16:10.077Z,6.68
2022-07-31T09:18:39.846Z,6.40
2022-07-31T09:21:08.786Z,2.90
2022-07-31T09:23:48.314Z,4.18
2022-07-31T09:26:17.143Z,2.90
2022-07-31T09:28:47.651Z,2.22
2022-07-31T09:31:16.346Z,4.30
2022-07-31T09:33:47.666Z,2.80
2022-07-31T09:36:16.070Z,3.80
2022-07-31T09:38:44.810Z,2.80
2022-07-31T09:41:26.720Z,4.55
2022-07-31T09:44:10.360Z,4.57
2022-07-31T09:46:42.022Z,7.53
2022-07-31T09:49:12.365Z,4.05
2022-07-31T09:51:41.840Z,4.65
2022-07-31T09:54:20.966Z,3.85
2022-07-31T09:56:50.203Z,2.70
2022-07-31T09:59:18.725Z,1.55
2022-07-31T10:01:49.464Z,2.42
2022-07-31T10:04:20.843Z,4.95
2022-07-31T10:06:50.378Z,2.45
2022-07-31T10:09:21.868Z,1.42
2022-07-31T10:11:51.512Z,1.92
2022-07-31T10:14:25.255Z,2.58
2022-07-31T10:17:00.151Z,3.55
2022-07-31T10:19:33.382Z,2.55
2022-07-31T10:22:04.814Z,1.80
2022-07-31T10:24:34.412Z,3.95
2022-07-31T10:27:07.778Z,2.05
2022-07-31T10:29:40.193Z,1.17
2022-07-31T10:32:09.481Z,2.42
2022-07-31T10:34:40.466Z,3.25
2022-07-31T10:37:12.486Z,1.20
2022-07-31T10:39:48.651Z,1.27
2022-07-31T10:42:28.858Z,3.97
2022-07-31T10:45:05.052Z,1.73
2022-07-31T10:47:33.411Z,2.30
2022-07-31T10:50:04.108Z,2.03
2022-07-31T10:52:34.758Z,1.88
2022-07-31T10:55:04.227Z,4.60
2022-07-31T10:57:34.991Z,2.28
2022-07-31T11:00:28.540Z,1.45
2022-07-31T11:02:58.551Z,3.35
2022-07-31T11:05:28.536Z,1.40
2022-07-31T11:08:02.812Z,1.35
2022-07-31T11:10:31.225Z,2.08
2022-07-31T11:13:04.394Z,1.25
2022-07-31T11:15:33.970Z,4.18
2022-07-31T11:18:25.294Z,2.45
2022-07-31T11:21:17.682Z,1.90
2022-07-31T11:24:02.028Z,1.48
2022-07-31T11:26:40.907Z,1.92
2022-07-31T11:30:01.342Z,1.75
2022-07-31T11:32:01.674Z,2.80
2022-07-31T11:34:30.029Z,1.40
2022-07-31T11:36:59.764Z,0.98
2022-07-31T11:39:34.162Z,1.75
2022-07-31T11:42:07.583Z,2.10
2022-07-31T11:44:36.840Z,0.68
2022-07-31T11:47:10.386Z,0.90
2022-07-31T11:50:02.343Z,1.88
2022-07-31T11:52:37.534Z,1.90
2022-07-31T11:55:09.670Z,1.67
2022-07-31T11:57:51.972Z,1.90
2022-07-31T12:00:24.834Z,0.70
2022-07-31T12:02:57.945Z,1.63
2022-07-31T12:05:37.901Z,5.32
2022-07-31T12:08:09.310Z,1.70
2022-07-31T12:10:38.188Z,1.88
2022-07-31T12:13:06.574Z,0.65
2022-07-31T12:15:34.973Z,1.67
2022-07-31T12:18:05.235Z,1.90
2022-07-31T12:20:36.829Z,1.85
2022-07-31T12:23:40.312Z,1.33
2022-07-31T12:25:57.714Z,1.83
2022-07-31T12:28:26.447Z,1.25
2022-07-31T12:31:00.335Z,0.88
2022-07-31T12:33:29.129Z,0.98
2022-07-31T12:36:01.865Z,0.95
2022-07-31T12:38:44.781Z,1.58
2022-07-31T12:41:14.961Z,0.75
2022-07-31T12:43:51.283Z,0.70
2022-07-31T12:46:22.476Z,0.60
2022-07-31T12:48:51.135Z,2.22
2022-07-31T12:51:44.236Z,0.57
2022-07-31T12:54:10.259Z,1.65
2022-07-31T12:56:39.672Z,0.90
2022-07-31T12:59:09.325Z,2.38
2022-07-31T13:01:40.446Z,0.68
2022-07-31T13:04:18.987Z,1.08
2022-07-31T13:06:51.491Z,3.17
2022-07-31T13:09:21.806Z,1.25
2022-07-31T13:11:55.861Z,0.95
2022-07-31T13:14:26.109Z,0.45
2022-07-31T13:16:56.139Z,2.15
2022-07-31T13:19:24.338Z,2.15
2022-07-31T13:21:52.561Z,0.77
2022-07-31T13:24:26.621Z,0.85
2022-07-31T13:26:54.857Z,1.92
2022-07-31T13:29:23.063Z,2.20
2022-07-31T13:31:51.820Z,2.33
2022-07-31T13:34:19.988Z,6.00
2022-07-31T13:36:48.242Z,0.95
2022-07-31T13:39:16.487Z,2.15
2022-07-31T13:41:46.097Z,1.98
2022-07-31T13:44:14.291Z,1.90
2022-07-31T13:46:42.577Z,2.20
2022-07-31T13:49:11.659Z,1.20
2022-07-31T13:51:40.758Z,1.58
2022-07-31T13:54:09.493Z,0.47
2022-07-31T13:56:43.046Z,1.88
2022-07-31T13:59:14.458Z,0.77
2022-07-31T14:02:03.912Z,0.70
2022-07-31T14:04:38.603Z,4.85
2022-07-31T14:07:08.870Z,1.08
2022-07-31T14:09:37.755Z,1.10
2022-07-31T14:12:06.854Z,2.15
2022-07-31T14:14:36.942Z,1.60
2022-07-31T14:17:05.197Z,0.38
2022-07-31T14:19:43.763Z,0.63
2022-07-31T14:22:13.879Z,3.63
2022-07-31T14:24:49.923Z,1.67
2022-07-31T14:27:20.683Z,0.73
2022-07-31T14:29:50.305Z,1.92
2022-07-31T14:32:19.476Z,1.58
2022-07-31T14:34:47.835Z,2.17
2022-07-31T14:37:16.050Z,3.47
2022-07-31T14:39:44.354Z,1.40
2022-07-31T14:42:13.122Z,2.63
2022-07-31T14:44:42.722Z,0.77
2022-07-31T14:47:13.266Z,1.45
2022-07-31T14:50:09.079Z,3.00
2022-07-31T14:52:30.536Z,2.30
2022-07-31T14:54:59.164Z,1.58
2022-07-31T14:57:27.622Z,1.58
2022-07-31T14:59:55.919Z,2.55
2022-07-31T15:02:25.535Z,12.55
2022-07-31T15:04:54.131Z,2.00
2022-07-31T15:07:43.970Z,0.85
2022-07-31T15:10:12.203Z,1.00
2022-07-31T15:12:40.452Z,3.20
2022-07-31T15:15:09.839Z,1.48
2022-07-31T15:17:39.551Z,1.15
2022-07-31T15:20:08.727Z,1.23
2022-07-31T15:22:37.008Z,1.15
2022-07-31T15:25:05.709Z,2.38
2022-07-31T15:27:33.979Z,2.20
2022-07-31T15:30:07.024Z,4.43
2022-07-31T15:32:36.717Z,3.08
2022-07-31T15:35:08.540Z,1.73
2022-07-31T15:37:38.451Z,2.92
2022-07-31T15:40:08.787Z,2.15
2022-07-31T15:42:40.605Z,1.65
2022-07-31T15:45:10.775Z,3.25
2022-07-31T15:47:39.480Z,1.35
2022-07-31T15:50:11.019Z,1.45
2022-07-31T15:52:39.690Z,1.80
2022-07-31T15:55:09.779Z,1.35
2022-07-31T15:57:38.223Z,2.17
2022-07-31T16:00:09.536Z,2.90
2022-07-31T16:02:38.480Z,1.63
2022-07-31T16:05:11.859Z,3.88
2022-07-31T16:08:30.038Z,1.90
2022-07-31T16:10:38.569Z,3.28
2022-07-31T16:13:06.886Z,1.23
2022-07-31T16:15:35.749Z,6.43
2022-07-31T16:18:04.792Z,5.72
2022-07-31T16:20:34.426Z,2.90
2022-07-31T16:23:02.859Z,2.47
2022-07-31T16:25:34.639Z,2.65
2022-07-31T16:28:03.902Z,5.57
2022-07-31T16:30:32.246Z,1.35
2022-07-31T16:33:00.530Z,4.40
2022-07-31T16:35:28.858Z,0.95
2022-07-31T16:37:58.467Z,2.17
2022-07-31T16:40:30.724Z,3.42
2022-07-31T16:43:02.116Z,7.72
2022-07-31T16:45:50.014Z,5.70
2022-07-31T16:48:18.478Z,4.47
2022-07-31T16:50:53.859Z,3.17
2022-07-31T16:54:10.856Z,1.10
2022-07-31T16:56:13.104Z,1.75
2022-07-31T16:58:41.651Z,2.47
2022-07-31T17:01:58.488Z,2.80
2022-07-31T17:04:00.742Z,1.85
2022-07-31T17:06:37.358Z,1.20
2022-07-31T17:09:17.109Z,0.60
2022-07-31T17:11:47.096Z,2.90
2022-07-31T17:14:15.405Z,3.05
2022-07-31T17:16:47.038Z,3.35
2022-07-31T17:19:16.726Z,1.23
2022-07-31T17:22:05.163Z,3.53
2022-07-31T17:24:37.885Z,0.85
2022-07-31T17:27:08.099Z,2.65
2022-07-31T17:29:37.148Z,3.80
2022-07-31T17:32:05.992Z,1.30
2022-07-31T17:34:35.399Z,3.85
2022-07-31T17:37:04.213Z,0.85
2022-07-31T17:39:32.662Z,0.65
2022-07-31T17:42:02.807Z,1.85
2022-07-31T17:44:31.086Z,2.30
2022-07-31T17:47:03.412Z,3.67
2022-07-31T17:49:33.716Z,2.58
2022-07-31T17:52:02.237Z,2.67
2022-07-31T17:54:31.417Z,2.78
2022-07-31T17:57:01.425Z,1.98
2022-07-31T17:59:30.259Z,3.72
2022-07-31T18:02:00.737Z,3.95
2022-07-31T18:04:30.373Z,1.58
2022-07-31T18:06:59.512Z,2.58
2022-07-31T18:09:28.282Z,1.67
2022-07-31T18:11:57.663Z,1.52
2022-07-31T18:14:27.549Z,1.55
2022-07-31T18:16:56.329Z,3.13
2022-07-31T18:19:24.664Z,3.47
2022-07-31T18:21:53.353Z,1.35
2022-07-31T18:24:22.778Z,3.67
2022-07-31T18:26:54.558Z,3.90
2022-07-31T18:29:22.789Z,2.63
2022-07-31T18:31:52.361Z,3.55
2022-07-31T18:34:20.606Z,1.98
2022-07-31T18:36:54.608Z,3.50
2022-07-31T18:39:23.896Z,3.90
2022-07-31T18:41:52.782Z,2.45
2022-07-31T18:44:22.038Z,3.58
2022-07-31T18:46:50.462Z,1.92
2022-07-31T18:50:59.458Z,3.20
2022-07-31T18:52:09.239Z,4.95
2022-07-31T18:54:37.883Z,5.45
2022-07-31T18:57:07.770Z,5.05
2022-07-31T18:59:36.367Z,4.22
2022-07-31T19:02:05.307Z,2.67
2022-07-31T19:04:35.646Z,2.40
2022-07-31T19:07:04.106Z,1.67
2022-07-31T19:09:32.385Z,5.00
2022-07-31T19:12:06.194Z,5.38
2022-07-31T19:14:36.480Z,3.25
2022-07-31T19:17:04.678Z,3.03
2022-07-31T19:19:54.419Z,2.78
2022-07-31T19:22:24.093Z,1.80
2022-07-31T19:24:52.468Z,4.53
2022-07-31T19:27:21.103Z,1.40
2022-07-31T19:29:49.418Z,2.20
2022-07-31T19:32:17.910Z,2.30
2022-07-31T19:34:48.065Z,3.90
2022-07-31T19:37:18.620Z,2.15
2022-07-31T19:39:47.146Z,2.53
2022-07-31T19:42:15.441Z,4.88
2022-07-31T19:44:43.722Z,2.63
2022-07-31T19:47:12.050Z,3.72
2022-07-31T19:49:43.020Z,3.95
2022-07-31T19:52:12.763Z,3.42
2022-07-31T19:54:41.147Z,2.92
2022-07-31T19:57:10.935Z,4.15
2022-07-31T19:59:39.634Z,1.60
2022-07-31T20:02:08.242Z,3.17
2022-07-31T20:04:37.339Z,3.67
2022-07-31T20:07:05.618Z,5.43
2022-07-31T20:09:35.200Z,2.03
2022-07-31T20:12:03.704Z,3.17
2022-07-31T20:14:32.104Z,10.20
2022-07-31T20:17:00.415Z,2.15
2022-07-31T20:19:29.130Z,4.25
2022-07-31T20:21:57.681Z,5.75
2022-07-31T20:24:27.118Z,3.45
2022-07-31T20:26:56.772Z,5.38
2022-07-31T20:29:25.040Z,5.72
2022-07-31T20:31:53.521Z,2.95
2022-07-31T20:34:22.738Z,5.22
2022-07-31T20:36:51.018Z,2.75
2022-07-31T20:39:20.860Z,4.65
2022-07-31T20:41:51.818Z,4.10
2022-07-31T20:44:21.665Z,4.10
2022-07-31T20:46:51.468Z,4.80
2022-07-31T20:49:35.022Z,1.63
2022-07-31T20:52:04.627Z,1.65
2022-07-31T20:54:34.468Z,5.38
2022-07-31T20:57:03.343Z,5.30
2022-07-31T20:59:32.944Z,3.20
2022-07-31T21:02:01.226Z,1.45
2022-07-31T21:04:29.543Z,3.10
2022-07-31T21:06:57.908Z,6.25
2022-07-31T21:09:26.318Z,2.95
2022-07-31T21:11:54.665Z,4.40
2022-07-31T21:14:23.130Z,4.10
2022-07-31T21:16:52.701Z,3.97
2022-07-31T21:19:21.044Z,3.38
2022-07-31T21:21:50.845Z,6.97
2022-07-31T21:24:19.760Z,4.32
2022-07-31T21:26:51.871Z,5.38
2022-07-31T21:29:22.240Z,9.73
2022-07-31T21:31:52.382Z,4.20
2022-07-31T21:34:21.836Z,6.25
2022-07-31T21:36:50.965Z,8.68
2022-07-31T21:39:19.701Z,4.80
2022-07-31T21:41:48.384Z,1.58
2022-07-31T21:44:18.670Z,2.50
2022-07-31T21:46:51.588Z,2.25
2022-07-31T21:49:23.450Z,4.15
2022-07-31T21:51:52.835Z,3.83
2022-07-31T21:54:21.030Z,3.35
2022-07-31T21:56:49.269Z,3.65
2022-07-31T21:59:17.537Z,3.38
2022-07-31T22:01:57.860Z,4.10
2022-07-31T22:04:34.903Z,2.03
2022-07-31T22:07:20.601Z,3.53
2022-07-31T22:09:48.998Z,4.88
2022-07-31T22:12:17.385Z,3.50
2022-07-31T22:14:45.608Z,4.05
2022-07-31T22:17:13.899Z,5.78
2022-07-31T22:19:47.165Z,3.88
2022-07-31T22:22:16.815Z,3.75
2022-07-31T22:24:45.439Z,3.70
2022-07-31T22:27:32.082Z,6.45
2022-07-31T22:30:01.062Z,4.07
2022-07-31T22:32:30.011Z,6.80
2022-07-31T22:34:59.754Z,6.45
2022-07-31T22:37:29.303Z,10.48
2022-07-31T22:39:59.334Z,7.43
2022-07-31T22:42:28.587Z,6.53
2022-07-31T22:44:57.511Z,14.45
2022-07-31T22:47:27.174Z,13.88
2022-07-31T22:49:56.318Z,11.25
2022-07-31T22:52:34.550Z,13.63
2022-07-31T22:55:08.722Z,14.57
2022-07-31T22:57:36.912Z,9.68
2022-07-31T23:00:07.554Z,12.73
2022-07-31T23:02:36.076Z,13.50
2022-07-31T23:05:04.556Z,17.55
2022-07-31T23:07:34.273Z,11.02
2022-07-31T23:10:02.474Z,10.55
2022-07-31T23:12:31.174Z,11.45
2022-07-31T23:14:59.333Z,14.10
2022-07-31T23:17:29.950Z,7.60
2022-07-31T23:19:58.883Z,7.82
2022-07-31T23:22:33.347Z,7.47
2022-07-31T23:25:04.933Z,10.10
2022-07-31T23:27:33.579Z,9.15
2022-07-31T23:30:02.295Z,9.68
2022-07-31T23:32:30.645Z,7.72
2022-07-31T23:34:59.390Z,9.18
2022-07-31T23:37:27.583Z,8.68
2022-07-31T23:39:55.939Z,8.75
2022-07-31T23:42:39.550Z,10.75
2022-07-31T23:45:11.261Z,13.18
2022-07-31T23:47:45.239Z,8.55
2022-07-31T23:50:15.236Z,9.95
2022-07-31T23:52:43.794Z,10.98
2022-07-31T23:55:12.820Z,14.07
2022-07-31T23:57:42.609Z,15.18
